sensor_id;sensor_type;location;lat;lon;timestamp;P1;durP1;ratioP1;P2;durP2;ratioP2
22160;SDS011;49035;48.812;11.762;2022-11-27T00:02:08;16.07;;;8.53;;
22160;SDS011;49035;48.812;11.762;2022-11-27T00:04:33;17.43;;;8.50;;
22160;SDS011;49035;48.812;11.762;2022-11-27T00:06:59;11.60;;;7.43;;
22160;SDS011;49035;48.812;11.762;2022-11-27T00:09:24;11.60;;;7.63;;
22160;SDS011;49035;48.812;11.762;2022-11-27T00:11:50;10.80;;;7.60;;
22160;SDS011;49035;48.812;11.762;2022-11-27T00:14:16;12.60;;;7.83;;
22160;SDS011;49035;48.812;11.762;2022-11-27T00:16:42;17.40;;;8.70;;
22160;SDS011;49035;48.812;11.762;2022-11-27T00:19:08;34.57;;;9.70;;
22160;SDS011;49035;48.812;11.762;2022-11-27T00:21:35;15.33;;;9.17;;
22160;SDS011;49035;48.812;11.762;2022-11-27T00:24:03;14.37;;;9.13;;
22160;SDS011;49035;48.812;11.762;2022-11-27T00:26:30;12.13;;;8.40;;
22160;SDS011;49035;48.812;11.762;2022-11-27T00:28:57;18.23;;;8.27;;
22160;SDS011;49035;48.812;11.762;2022-11-27T00:31:25;19.00;;;9.07;;
22160;SDS011;49035;48.812;11.762;2022-11-27T00:33:54;15.93;;;8.67;;
22160;SDS011;49035;48.812;11.762;2022-11-27T00:36:20;11.33;;;7.53;;
22160;SDS011;49035;48.812;11.762;2022-11-27T00:38:46;11.87;;;7.43;;
22160;SDS011;49035;48.812;11.762;2022-11-27T00:41:16;13.67;;;7.23;;
22160;SDS011;49035;48.812;11.762;2022-11-27T00:43:43;32.20;;;9.80;;
22160;SDS011;49035;48.812;11.762;2022-11-27T00:46:09;19.53;;;9.00;;
22160;SDS011;49035;48.812;11.762;2022-11-27T00:48:34;40.50;;;10.50;;
22160;SDS011;49035;48.812;11.762;2022-11-27T00:51:00;11.57;;;7.87;;
22160;SDS011;49035;48.812;11.762;2022-11-27T00:53:28;15.53;;;9.93;;
22160;SDS011;49035;48.812;11.762;2022-11-27T00:55:54;14.60;;;10.20;;
22160;SDS011;49035;48.812;11.762;2022-11-27T00:58:20;15.93;;;10.27;;
22160;SDS011;49035;48.812;11.762;2022-11-27T01:00:53;19.10;;;11.27;;
22160;SDS011;49035;48.812;11.762;2022-11-27T01:03:22;43.93;;;10.43;;
22160;SDS011;49035;48.812;11.762;2022-11-27T01:05:50;22.93;;;8.87;;
22160;SDS011;49035;48.812;11.762;2022-11-27T01:08:16;23.83;;;9.07;;
22160;SDS011;49035;48.812;11.762;2022-11-27T01:10:50;32.40;;;10.00;;
22160;SDS011;49035;48.812;11.762;2022-11-27T01:13:17;20.10;;;9.63;;
22160;SDS011;49035;48.812;11.762;2022-11-27T01:15:43;56.73;;;13.10;;
22160;SDS011;49035;48.812;11.762;2022-11-27T01:18:09;30.00;;;11.30;;
22160;SDS011;49035;48.812;11.762;2022-11-27T01:20:39;38.70;;;11.83;;
22160;SDS011;49035;48.812;11.762;2022-11-27T01:23:05;17.67;;;10.40;;
22160;SDS011;49035;48.812;11.762;2022-11-27T01:25:33;17.50;;;10.33;;
22160;SDS011;49035;48.812;11.762;2022-11-27T01:28:00;30.57;;;11.73;;
22160;SDS011;49035;48.812;11.762;2022-11-27T01:30:25;16.87;;;10.33;;
22160;SDS011;49035;48.812;11.762;2022-11-27T01:32:54;15.03;;;9.37;;
22160;SDS011;49035;48.812;11.762;2022-11-27T01:35:19;20.93;;;8.77;;
22160;SDS011;49035;48.812;11.762;2022-11-27T01:37:45;13.10;;;7.87;;
22160;SDS011;49035;48.812;11.762;2022-11-27T01:40:11;13.43;;;8.10;;
22160;SDS011;49035;48.812;11.762;2022-11-27T01:42:36;38.03;;;10.57;;
22160;SDS011;49035;48.812;11.762;2022-11-27T01:45:02;23.30;;;9.07;;
22160;SDS011;49035;48.812;11.762;2022-11-27T01:47:39;24.27;;;9.37;;
22160;SDS011;49035;48.812;11.762;2022-11-27T01:50:19;18.57;;;9.07;;
22160;SDS011;49035;48.812;11.762;2022-11-27T01:52:50;32.73;;;19.03;;
22160;SDS011;49035;48.812;11.762;2022-11-27T01:57:51;14.93;;;8.37;;
22160;SDS011;49035;48.812;11.762;2022-11-27T02:00:20;24.90;;;9.00;;
22160;SDS011;49035;48.812;11.762;2022-11-27T02:02:46;16.93;;;9.30;;
22160;SDS011;49035;48.812;11.762;2022-11-27T02:05:17;12.20;;;8.50;;
22160;SDS011;49035;48.812;11.762;2022-11-27T02:07:45;24.00;;;8.50;;
22160;SDS011;49035;48.812;11.762;2022-11-27T02:10:11;33.63;;;9.70;;
22160;SDS011;49035;48.812;11.762;2022-11-27T02:15:30;9.17;;;6.10;;
22160;SDS011;49035;48.812;11.762;2022-11-27T02:18:04;14.97;;;6.97;;
22160;SDS011;49035;48.812;11.762;2022-11-27T02:29:11;25.27;;;7.67;;
22160;SDS011;49035;48.812;11.762;2022-11-27T02:34:10;29.70;;;8.90;;
22160;SDS011;49035;48.812;11.762;2022-11-27T02:36:37;18.50;;;7.53;;
22160;SDS011;49035;48.812;11.762;2022-11-27T02:39:10;31.00;;;7.83;;
22160;SDS011;49035;48.812;11.762;2022-11-27T02:41:43;21.43;;;7.90;;
22160;SDS011;49035;48.812;11.762;2022-11-27T02:44:15;30.10;;;7.30;;
22160;SDS011;49035;48.812;11.762;2022-11-27T02:46:43;35.73;;;9.73;;
22160;SDS011;49035;48.812;11.762;2022-11-27T02:49:11;35.10;;;9.40;;
22160;SDS011;49035;48.812;11.762;2022-11-27T02:51:45;17.80;;;7.57;;
22160;SDS011;49035;48.812;11.762;2022-11-27T02:54:17;13.27;;;8.00;;
22160;SDS011;49035;48.812;11.762;2022-11-27T02:56:48;24.93;;;8.83;;
22160;SDS011;49035;48.812;11.762;2022-11-27T02:59:15;16.60;;;8.83;;
22160;SDS011;49035;48.812;11.762;2022-11-27T03:01:43;18.33;;;7.87;;
22160;SDS011;49035;48.812;11.762;2022-11-27T03:04:15;20.97;;;8.17;;
22160;SDS011;49035;48.812;11.762;2022-11-27T03:06:49;26.10;;;7.90;;
22160;SDS011;49035;48.812;11.762;2022-11-27T03:09:31;49.57;;;9.10;;
22160;SDS011;49035;48.812;11.762;2022-11-27T03:12:00;20.70;;;8.57;;
22160;SDS011;49035;48.812;11.762;2022-11-27T03:14:30;11.17;;;6.83;;
22160;SDS011;49035;48.812;11.762;2022-11-27T03:17:17;19.97;;;8.83;;
22160;SDS011;49035;48.812;11.762;2022-11-27T03:19:51;35.80;;;8.70;;
22160;SDS011;49035;48.812;11.762;2022-11-27T03:22:22;18.13;;;8.17;;
22160;SDS011;49035;48.812;11.762;2022-11-27T03:24:48;39.77;;;8.50;;
22160;SDS011;49035;48.812;11.762;2022-11-27T03:27:14;41.07;;;8.30;;
22160;SDS011;49035;48.812;11.762;2022-11-27T03:29:46;41.80;;;7.80;;
22160;SDS011;49035;48.812;11.762;2022-11-27T03:32:18;14.97;;;7.03;;
22160;SDS011;49035;48.812;11.762;2022-11-27T03:34:45;27.33;;;7.73;;
22160;SDS011;49035;48.812;11.762;2022-11-27T03:37:11;11.47;;;6.93;;
22160;SDS011;49035;48.812;11.762;2022-11-27T03:39:37;18.27;;;7.67;;
22160;SDS011;49035;48.812;11.762;2022-11-27T03:44:41;13.97;;;7.33;;
22160;SDS011;49035;48.812;11.762;2022-11-27T03:47:42;23.00;;;7.33;;
22160;SDS011;49035;48.812;11.762;2022-11-27T03:53:26;17.30;;;6.70;;
22160;SDS011;49035;48.812;11.762;2022-11-27T04:01:48;24.93;;;7.97;;
22160;SDS011;49035;48.812;11.762;2022-11-27T04:04:13;16.23;;;7.43;;
22160;SDS011;49035;48.812;11.762;2022-11-27T04:06:39;14.83;;;7.53;;
22160;SDS011;49035;48.812;11.762;2022-11-27T04:09:05;16.63;;;7.20;;
22160;SDS011;49035;48.812;11.762;2022-11-27T04:11:30;28.93;;;8.00;;
22160;SDS011;49035;48.812;11.762;2022-11-27T04:13:56;23.37;;;7.40;;
22160;SDS011;49035;48.812;11.762;2022-11-27T04:16:22;28.23;;;6.60;;
22160;SDS011;49035;48.812;11.762;2022-11-27T04:18:48;24.47;;;8.10;;
22160;SDS011;49035;48.812;11.762;2022-11-27T04:21:13;14.70;;;6.80;;
22160;SDS011;49035;48.812;11.762;2022-11-27T04:23:40;26.27;;;8.33;;
22160;SDS011;49035;48.812;11.762;2022-11-27T04:26:09;14.73;;;8.03;;
22160;SDS011;49035;48.812;11.762;2022-11-27T04:28:34;35.10;;;8.47;;
22160;SDS011;49035;48.812;11.762;2022-11-27T04:31:00;26.67;;;7.37;;
22160;SDS011;49035;48.812;11.762;2022-11-27T04:33:26;17.73;;;7.67;;
22160;SDS011;49035;48.812;11.762;2022-11-27T04:35:51;18.10;;;7.97;;
22160;SDS011;49035;48.812;11.762;2022-11-27T04:38:17;19.63;;;8.63;;
22160;SDS011;49035;48.812;11.762;2022-11-27T04:40:44;22.37;;;7.40;;
22160;SDS011;49035;48.812;11.762;2022-11-27T04:43:10;31.87;;;7.63;;
22160;SDS011;49035;48.812;11.762;2022-11-27T04:45:36;36.53;;;8.50;;
22160;SDS011;49035;48.812;11.762;2022-11-27T04:48:02;18.93;;;8.47;;
22160;SDS011;49035;48.812;11.762;2022-11-27T04:50:27;19.40;;;8.20;;
22160;SDS011;49035;48.812;11.762;2022-11-27T04:52:53;18.27;;;8.67;;
22160;SDS011;49035;48.812;11.762;2022-11-27T04:55:19;18.30;;;8.43;;
22160;SDS011;49035;48.812;11.762;2022-11-27T04:57:45;32.03;;;9.90;;
22160;SDS011;49035;48.812;11.762;2022-11-27T05:00:10;33.00;;;9.00;;
22160;SDS011;49035;48.812;11.762;2022-11-27T05:02:36;23.57;;;9.57;;
22160;SDS011;49035;48.812;11.762;2022-11-27T05:05:02;40.90;;;8.90;;
22160;SDS011;49035;48.812;11.762;2022-11-27T05:07:28;27.80;;;9.07;;
22160;SDS011;49035;48.812;11.762;2022-11-27T05:09:54;37.40;;;10.10;;
22160;SDS011;49035;48.812;11.762;2022-11-27T05:12:19;32.47;;;10.40;;
22160;SDS011;49035;48.812;11.762;2022-11-27T05:14:45;33.43;;;9.03;;
22160;SDS011;49035;48.812;11.762;2022-11-27T05:17:10;36.73;;;10.30;;
22160;SDS011;49035;48.812;11.762;2022-11-27T05:19:36;31.53;;;9.73;;
22160;SDS011;49035;48.812;11.762;2022-11-27T05:22:02;28.37;;;10.07;;
22160;SDS011;49035;48.812;11.762;2022-11-27T05:24:27;23.07;;;9.90;;
22160;SDS011;49035;48.812;11.762;2022-11-27T05:26:54;27.23;;;9.30;;
22160;SDS011;49035;48.812;11.762;2022-11-27T05:29:20;33.60;;;9.40;;
22160;SDS011;49035;48.812;11.762;2022-11-27T05:31:46;28.13;;;9.70;;
22160;SDS011;49035;48.812;11.762;2022-11-27T05:34:12;33.60;;;10.63;;
22160;SDS011;49035;48.812;11.762;2022-11-27T05:36:38;36.07;;;10.37;;
22160;SDS011;49035;48.812;11.762;2022-11-27T05:39:04;24.50;;;10.40;;
22160;SDS011;49035;48.812;11.762;2022-11-27T05:41:31;23.80;;;9.30;;
22160;SDS011;49035;48.812;11.762;2022-11-27T05:43:57;24.97;;;9.83;;
22160;SDS011;49035;48.812;11.762;2022-11-27T05:46:23;24.97;;;8.90;;
22160;SDS011;49035;48.812;11.762;2022-11-27T05:48:49;34.43;;;10.43;;
22160;SDS011;49035;48.812;11.762;2022-11-27T05:51:14;28.17;;;10.07;;
22160;SDS011;49035;48.812;11.762;2022-11-27T05:53:41;37.70;;;10.17;;
22160;SDS011;49035;48.812;11.762;2022-11-27T05:56:10;26.43;;;10.50;;
22160;SDS011;49035;48.812;11.762;2022-11-27T05:58:38;38.87;;;10.63;;
22160;SDS011;49035;48.812;11.762;2022-11-27T06:01:05;30.93;;;10.77;;
22160;SDS011;49035;48.812;11.762;2022-11-27T06:03:31;32.43;;;11.50;;
22160;SDS011;49035;48.812;11.762;2022-11-27T06:05:57;25.33;;;10.90;;
22160;SDS011;49035;48.812;11.762;2022-11-27T06:08:28;29.70;;;11.20;;
22160;SDS011;49035;48.812;11.762;2022-11-27T06:10:54;26.47;;;9.90;;
22160;SDS011;49035;48.812;11.762;2022-11-27T06:13:20;38.20;;;11.00;;
22160;SDS011;49035;48.812;11.762;2022-11-27T06:15:45;22.60;;;9.47;;
22160;SDS011;49035;48.812;11.762;2022-11-27T06:18:11;32.67;;;11.57;;
22160;SDS011;49035;48.812;11.762;2022-11-27T06:20:37;28.67;;;11.37;;
22160;SDS011;49035;48.812;11.762;2022-11-27T06:23:03;22.23;;;10.10;;
22160;SDS011;49035;48.812;11.762;2022-11-27T06:25:28;28.80;;;11.40;;
22160;SDS011;49035;48.812;11.762;2022-11-27T06:27:54;24.10;;;9.90;;
22160;SDS011;49035;48.812;11.762;2022-11-27T06:30:19;36.07;;;11.73;;
22160;SDS011;49035;48.812;11.762;2022-11-27T06:32:45;29.37;;;11.53;;
22160;SDS011;49035;48.812;11.762;2022-11-27T06:35:10;26.93;;;11.20;;
22160;SDS011;49035;48.812;11.762;2022-11-27T06:37:36;36.60;;;11.80;;
22160;SDS011;49035;48.812;11.762;2022-11-27T06:40:02;32.90;;;10.40;;
22160;SDS011;49035;48.812;11.762;2022-11-27T06:42:29;26.67;;;11.13;;
22160;SDS011;49035;48.812;11.762;2022-11-27T06:44:55;32.33;;;12.07;;
22160;SDS011;49035;48.812;11.762;2022-11-27T06:47:21;30.20;;;12.23;;
22160;SDS011;49035;48.812;11.762;2022-11-27T06:49:47;30.40;;;11.57;;
22160;SDS011;49035;48.812;11.762;2022-11-27T06:52:13;36.67;;;11.63;;
22160;SDS011;49035;48.812;11.762;2022-11-27T06:54:38;32.63;;;11.10;;
22160;SDS011;49035;48.812;11.762;2022-11-27T06:57:04;40.10;;;12.13;;
22160;SDS011;49035;48.812;11.762;2022-11-27T06:59:29;34.17;;;11.87;;
22160;SDS011;49035;48.812;11.762;2022-11-27T07:01:55;38.90;;;12.33;;
22160;SDS011;49035;48.812;11.762;2022-11-27T07:04:21;66.67;;;13.80;;
22160;SDS011;49035;48.812;11.762;2022-11-27T07:06:47;35.07;;;12.30;;
22160;SDS011;49035;48.812;11.762;2022-11-27T07:09:12;36.80;;;12.57;;
22160;SDS011;49035;48.812;11.762;2022-11-27T07:11:38;57.47;;;13.17;;
22160;SDS011;49035;48.812;11.762;2022-11-27T07:14:04;29.60;;;10.37;;
22160;SDS011;49035;48.812;11.762;2022-11-27T07:16:32;59.70;;;13.67;;
22160;SDS011;49035;48.812;11.762;2022-11-27T07:19:00;40.17;;;14.10;;
22160;SDS011;49035;48.812;11.762;2022-11-27T07:21:27;43.77;;;12.50;;
22160;SDS011;49035;48.812;11.762;2022-11-27T07:23:53;36.20;;;11.63;;
22160;SDS011;49035;48.812;11.762;2022-11-27T07:26:23;33.33;;;11.77;;
22160;SDS011;49035;48.812;11.762;2022-11-27T07:28:51;42.47;;;12.60;;
22160;SDS011;49035;48.812;11.762;2022-11-27T07:31:18;37.70;;;11.83;;
22160;SDS011;49035;48.812;11.762;2022-11-27T07:33:48;37.47;;;13.40;;
22160;SDS011;49035;48.812;11.762;2022-11-27T07:36:17;37.63;;;12.27;;
22160;SDS011;49035;48.812;11.762;2022-11-27T07:38:45;37.70;;;13.27;;
22160;SDS011;49035;48.812;11.762;2022-11-27T07:41:14;43.97;;;12.57;;
22160;SDS011;49035;48.812;11.762;2022-11-27T07:43:41;45.60;;;13.47;;
22160;SDS011;49035;48.812;11.762;2022-11-27T07:46:12;38.60;;;13.20;;
22160;SDS011;49035;48.812;11.762;2022-11-27T07:48:41;38.63;;;13.07;;
22160;SDS011;49035;48.812;11.762;2022-11-27T07:51:07;40.63;;;13.20;;
22160;SDS011;49035;48.812;11.762;2022-11-27T07:53:34;42.37;;;13.73;;
22160;SDS011;49035;48.812;11.762;2022-11-27T07:56:01;38.17;;;12.30;;
22160;SDS011;49035;48.812;11.762;2022-11-27T07:58:27;36.47;;;12.53;;
22160;SDS011;49035;48.812;11.762;2022-11-27T08:00:53;39.83;;;11.77;;
22160;SDS011;49035;48.812;11.762;2022-11-27T08:03:20;45.07;;;13.00;;
22160;SDS011;49035;48.812;11.762;2022-11-27T08:05:46;42.73;;;12.87;;
22160;SDS011;49035;48.812;11.762;2022-11-27T08:08:11;37.87;;;12.40;;
22160;SDS011;49035;48.812;11.762;2022-11-27T08:10:37;40.73;;;12.87;;
22160;SDS011;49035;48.812;11.762;2022-11-27T08:13:04;38.83;;;12.37;;
22160;SDS011;49035;48.812;11.762;2022-11-27T08:15:29;46.43;;;13.93;;
22160;SDS011;49035;48.812;11.762;2022-11-27T08:17:55;47.10;;;13.80;;
22160;SDS011;49035;48.812;11.762;2022-11-27T08:20:21;51.37;;;15.47;;
22160;SDS011;49035;48.812;11.762;2022-11-27T08:22:47;49.67;;;14.53;;
22160;SDS011;49035;48.812;11.762;2022-11-27T08:25:13;54.00;;;14.90;;
22160;SDS011;49035;48.812;11.762;2022-11-27T08:27:40;57.07;;;13.67;;
22160;SDS011;49035;48.812;11.762;2022-11-27T08:30:05;54.97;;;15.60;;
22160;SDS011;49035;48.812;11.762;2022-11-27T08:32:32;46.80;;;14.87;;
22160;SDS011;49035;48.812;11.762;2022-11-27T08:34:58;57.10;;;15.13;;
22160;SDS011;49035;48.812;11.762;2022-11-27T08:37:23;54.23;;;15.50;;
22160;SDS011;49035;48.812;11.762;2022-11-27T08:39:49;47.23;;;14.03;;
22160;SDS011;49035;48.812;11.762;2022-11-27T08:42:15;55.00;;;14.93;;
22160;SDS011;49035;48.812;11.762;2022-11-27T08:44:40;48.07;;;15.27;;
22160;SDS011;49035;48.812;11.762;2022-11-27T08:47:06;55.97;;;15.87;;
22160;SDS011;49035;48.812;11.762;2022-11-27T08:49:32;50.83;;;15.77;;
22160;SDS011;49035;48.812;11.762;2022-11-27T08:51:57;56.23;;;16.50;;
22160;SDS011;49035;48.812;11.762;2022-11-27T08:54:23;46.87;;;17.10;;
22160;SDS011;49035;48.812;11.762;2022-11-27T08:56:50;51.77;;;16.90;;
22160;SDS011;49035;48.812;11.762;2022-11-27T08:59:16;54.90;;;16.63;;
22160;SDS011;49035;48.812;11.762;2022-11-27T09:01:42;41.27;;;15.30;;
22160;SDS011;49035;48.812;11.762;2022-11-27T09:04:08;44.00;;;16.30;;
22160;SDS011;49035;48.812;11.762;2022-11-27T09:06:34;62.30;;;16.07;;
22160;SDS011;49035;48.812;11.762;2022-11-27T09:09:00;46.50;;;16.50;;
22160;SDS011;49035;48.812;11.762;2022-11-27T09:11:28;42.67;;;15.13;;
22160;SDS011;49035;48.812;11.762;2022-11-27T09:13:55;41.20;;;14.97;;
22160;SDS011;49035;48.812;11.762;2022-11-27T09:16:23;41.27;;;14.37;;
22160;SDS011;49035;48.812;11.762;2022-11-27T09:18:50;40.73;;;15.30;;
22160;SDS011;49035;48.812;11.762;2022-11-27T09:21:17;43.07;;;15.93;;
22160;SDS011;49035;48.812;11.762;2022-11-27T09:23:44;43.47;;;14.73;;
22160;SDS011;49035;48.812;11.762;2022-11-27T09:26:11;36.90;;;14.57;;
22160;SDS011;49035;48.812;11.762;2022-11-27T09:28:39;37.30;;;15.30;;
22160;SDS011;49035;48.812;11.762;2022-11-27T09:31:05;43.17;;;14.90;;
22160;SDS011;49035;48.812;11.762;2022-11-27T09:33:33;37.27;;;15.53;;
22160;SDS011;49035;48.812;11.762;2022-11-27T09:36:08;31.50;;;14.40;;
22160;SDS011;49035;48.812;11.762;2022-11-27T09:38:35;34.03;;;13.83;;
22160;SDS011;49035;48.812;11.762;2022-11-27T09:44:04;35.63;;;14.27;;
22160;SDS011;49035;48.812;11.762;2022-11-27T09:46:53;29.67;;;15.63;;
22160;SDS011;49035;48.812;11.762;2022-11-27T09:49:40;38.77;;;16.10;;
22160;SDS011;49035;48.812;11.762;2022-11-27T09:52:38;30.43;;;13.50;;
22160;SDS011;49035;48.812;11.762;2022-11-27T09:55:04;37.23;;;14.40;;
22160;SDS011;49035;48.812;11.762;2022-11-27T09:57:35;24.53;;;12.80;;
22160;SDS011;49035;48.812;11.762;2022-11-27T10:00:09;27.07;;;13.33;;
22160;SDS011;49035;48.812;11.762;2022-11-27T10:02:41;28.63;;;13.80;;
22160;SDS011;49035;48.812;11.762;2022-11-27T10:05:18;27.07;;;13.03;;
22160;SDS011;49035;48.812;11.762;2022-11-27T10:07:52;32.57;;;14.30;;
22160;SDS011;49035;48.812;11.762;2022-11-27T10:16:08;27.17;;;13.63;;
22160;SDS011;49035;48.812;11.762;2022-11-27T10:18:50;26.60;;;12.67;;
22160;SDS011;49035;48.812;11.762;2022-11-27T10:21:39;25.20;;;14.37;;
22160;SDS011;49035;48.812;11.762;2022-11-27T10:26:52;23.90;;;12.87;;
22160;SDS011;49035;48.812;11.762;2022-11-27T10:29:35;23.47;;;13.20;;
22160;SDS011;49035;48.812;11.762;2022-11-27T10:32:14;24.17;;;11.77;;
22160;SDS011;49035;48.812;11.762;2022-11-27T10:34:44;23.20;;;11.77;;
22160;SDS011;49035;48.812;11.762;2022-11-27T10:45:19;22.27;;;12.07;;
22160;SDS011;49035;48.812;11.762;2022-11-27T10:47:52;20.60;;;11.17;;
22160;SDS011;49035;48.812;11.762;2022-11-27T10:50:18;23.43;;;13.33;;
22160;SDS011;49035;48.812;11.762;2022-11-27T10:53:06;19.40;;;10.43;;
22160;SDS011;49035;48.812;11.762;2022-11-27T10:58:16;18.67;;;10.63;;
22160;SDS011;49035;48.812;11.762;2022-11-27T11:01:02;17.87;;;9.17;;
22160;SDS011;49035;48.812;11.762;2022-11-27T11:03:38;17.50;;;9.73;;
22160;SDS011;49035;48.812;11.762;2022-11-27T11:06:05;17.13;;;9.37;;
22160;SDS011;49035;48.812;11.762;2022-11-27T11:08:39;18.77;;;10.73;;
22160;SDS011;49035;48.812;11.762;2022-11-27T11:11:06;17.10;;;9.67;;
22160;SDS011;49035;48.812;11.762;2022-11-27T11:13:43;19.80;;;10.50;;
22160;SDS011;49035;48.812;11.762;2022-11-27T11:18:43;19.87;;;9.37;;
22160;SDS011;49035;48.812;11.762;2022-11-27T11:23:57;18.87;;;11.40;;
22160;SDS011;49035;48.812;11.762;2022-11-27T11:27:05;17.10;;;10.37;;
22160;SDS011;49035;48.812;11.762;2022-11-27T11:32:15;23.03;;;10.83;;
22160;SDS011;49035;48.812;11.762;2022-11-27T11:34:49;15.87;;;10.00;;
22160;SDS011;49035;48.812;11.762;2022-11-27T11:37:39;18.53;;;10.37;;
22160;SDS011;49035;48.812;11.762;2022-11-27T11:42:37;17.20;;;10.47;;
22160;SDS011;49035;48.812;11.762;2022-11-27T11:47:44;21.13;;;9.83;;
22160;SDS011;49035;48.812;11.762;2022-11-27T11:50:17;18.53;;;10.43;;
22160;SDS011;49035;48.812;11.762;2022-11-27T11:55:34;19.77;;;11.63;;
22160;SDS011;49035;48.812;11.762;2022-11-27T12:01:29;18.77;;;10.50;;
22160;SDS011;49035;48.812;11.762;2022-11-27T12:04:11;15.73;;;10.13;;
22160;SDS011;49035;48.812;11.762;2022-11-27T12:15:07;20.87;;;11.27;;
22160;SDS011;49035;48.812;11.762;2022-11-27T12:17:51;17.80;;;10.40;;
22160;SDS011;49035;48.812;11.762;2022-11-27T12:20:37;19.23;;;10.63;;
22160;SDS011;49035;48.812;11.762;2022-11-27T12:29:26;19.43;;;11.00;;
22160;SDS011;49035;48.812;11.762;2022-11-27T12:32:18;20.10;;;10.30;;
22160;SDS011;49035;48.812;11.762;2022-11-27T12:43:40;17.20;;;10.00;;
22160;SDS011;49035;48.812;11.762;2022-11-27T12:51:42;18.23;;;10.13;;
22160;SDS011;49035;48.812;11.762;2022-11-27T12:54:29;16.80;;;10.20;;
22160;SDS011;49035;48.812;11.762;2022-11-27T12:57:05;18.63;;;11.33;;
22160;SDS011;49035;48.812;11.762;2022-11-27T12:59:38;18.97;;;11.20;;
22160;SDS011;49035;48.812;11.762;2022-11-27T13:04:36;17.57;;;9.70;;
22160;SDS011;49035;48.812;11.762;2022-11-27T13:07:22;23.97;;;12.30;;
22160;SDS011;49035;48.812;11.762;2022-11-27T13:12:30;17.87;;;10.03;;
22160;SDS011;49035;48.812;11.762;2022-11-27T13:15:11;17.70;;;9.97;;
22160;SDS011;49035;48.812;11.762;2022-11-27T13:17:48;18.10;;;10.90;;
22160;SDS011;49035;48.812;11.762;2022-11-27T13:20:31;19.87;;;10.20;;
22160;SDS011;49035;48.812;11.762;2022-11-27T13:23:00;17.50;;;10.60;;
22160;SDS011;49035;48.812;11.762;2022-11-27T13:25:26;20.87;;;10.80;;
22160;SDS011;49035;48.812;11.762;2022-11-27T13:27:55;23.10;;;10.97;;
22160;SDS011;49035;48.812;11.762;2022-11-27T13:30:24;17.73;;;10.40;;
22160;SDS011;49035;48.812;11.762;2022-11-27T13:32:55;19.70;;;10.80;;
22160;SDS011;49035;48.812;11.762;2022-11-27T13:38:10;20.47;;;11.90;;
22160;SDS011;49035;48.812;11.762;2022-11-27T13:40:43;23.10;;;11.90;;
22160;SDS011;49035;48.812;11.762;2022-11-27T13:43:18;21.17;;;11.00;;
22160;SDS011;49035;48.812;11.762;2022-11-27T13:45:59;24.00;;;11.80;;
22160;SDS011;49035;48.812;11.762;2022-11-27T13:48:45;20.40;;;11.30;;
22160;SDS011;49035;48.812;11.762;2022-11-27T13:51:21;20.40;;;11.73;;
22160;SDS011;49035;48.812;11.762;2022-11-27T13:53:53;22.90;;;11.73;;
22160;SDS011;49035;48.812;11.762;2022-11-27T13:56:42;20.60;;;11.27;;
22160;SDS011;49035;48.812;11.762;2022-11-27T14:02:01;21.80;;;11.80;;
22160;SDS011;49035;48.812;11.762;2022-11-27T14:04:29;22.83;;;12.90;;
22160;SDS011;49035;48.812;11.762;2022-11-27T14:07:05;21.13;;;11.90;;
22160;SDS011;49035;48.812;11.762;2022-11-27T14:12:17;24.87;;;13.40;;
22160;SDS011;49035;48.812;11.762;2022-11-27T14:17:26;21.27;;;11.60;;
22160;SDS011;49035;48.812;11.762;2022-11-27T14:20:02;22.23;;;13.07;;
22160;SDS011;49035;48.812;11.762;2022-11-27T14:22:55;19.67;;;11.90;;
22160;SDS011;49035;48.812;11.762;2022-11-27T14:27:57;21.53;;;11.83;;
22160;SDS011;49035;48.812;11.762;2022-11-27T14:33:14;21.63;;;12.20;;
22160;SDS011;49035;48.812;11.762;2022-11-27T14:35:46;21.73;;;11.33;;
22160;SDS011;49035;48.812;11.762;2022-11-27T14:38:12;23.30;;;12.23;;
22160;SDS011;49035;48.812;11.762;2022-11-27T14:40:40;22.27;;;12.20;;
22160;SDS011;49035;48.812;11.762;2022-11-27T14:43:17;21.43;;;11.40;;
22160;SDS011;49035;48.812;11.762;2022-11-27T14:45:49;18.77;;;10.87;;
22160;SDS011;49035;48.812;11.762;2022-11-27T14:49:05;19.57;;;10.93;;
22160;SDS011;49035;48.812;11.762;2022-11-27T14:51:17;17.10;;;10.33;;
22160;SDS011;49035;48.812;11.762;2022-11-27T14:53:47;17.83;;;10.27;;
22160;SDS011;49035;48.812;11.762;2022-11-27T14:56:16;20.20;;;10.90;;
22160;SDS011;49035;48.812;11.762;2022-11-27T14:58:46;22.03;;;10.57;;
22160;SDS011;49035;48.812;11.762;2022-11-27T15:03:58;18.83;;;10.33;;
22160;SDS011;49035;48.812;11.762;2022-11-27T15:06:26;18.77;;;10.73;;
22160;SDS011;49035;48.812;11.762;2022-11-27T15:08:55;16.60;;;9.87;;
22160;SDS011;49035;48.812;11.762;2022-11-27T15:11:22;19.20;;;9.90;;
22160;SDS011;49035;48.812;11.762;2022-11-27T15:13:52;19.10;;;10.00;;
22160;SDS011;49035;48.812;11.762;2022-11-27T15:16:22;17.57;;;9.97;;
22160;SDS011;49035;48.812;11.762;2022-11-27T15:18:51;19.10;;;10.20;;
22160;SDS011;49035;48.812;11.762;2022-11-27T15:21:21;19.63;;;11.00;;
22160;SDS011;49035;48.812;11.762;2022-11-27T15:23:52;16.47;;;10.13;;
22160;SDS011;49035;48.812;11.762;2022-11-27T15:26:38;17.93;;;9.60;;
22160;SDS011;49035;48.812;11.762;2022-11-27T15:29:23;17.83;;;9.90;;
22160;SDS011;49035;48.812;11.762;2022-11-27T15:31:52;23.10;;;9.90;;
22160;SDS011;49035;48.812;11.762;2022-11-27T15:34:20;23.87;;;11.27;;
22160;SDS011;49035;48.812;11.762;2022-11-27T15:36:47;17.43;;;10.27;;
22160;SDS011;49035;48.812;11.762;2022-11-27T15:41:52;21.40;;;11.53;;
22160;SDS011;49035;48.812;11.762;2022-11-27T15:44:23;18.53;;;10.83;;
22160;SDS011;49035;48.812;11.762;2022-11-27T15:46:50;19.97;;;11.57;;
22160;SDS011;49035;48.812;11.762;2022-11-27T15:49:17;20.63;;;11.37;;
22160;SDS011;49035;48.812;11.762;2022-11-27T15:51:43;23.87;;;12.23;;
22160;SDS011;49035;48.812;11.762;2022-11-27T15:54:10;17.23;;;9.93;;
22160;SDS011;49035;48.812;11.762;2022-11-27T15:56:35;21.37;;;10.53;;
22160;SDS011;49035;48.812;11.762;2022-11-27T15:59:01;17.77;;;10.80;;
22160;SDS011;49035;48.812;11.762;2022-11-27T16:01:27;23.37;;;11.27;;
22160;SDS011;49035;48.812;11.762;2022-11-27T16:03:52;20.03;;;10.53;;
22160;SDS011;49035;48.812;11.762;2022-11-27T16:06:18;18.67;;;11.03;;
22160;SDS011;49035;48.812;11.762;2022-11-27T16:08:51;21.13;;;10.80;;
22160;SDS011;49035;48.812;11.762;2022-11-27T16:11:20;19.00;;;10.83;;
22160;SDS011;49035;48.812;11.762;2022-11-27T16:13:47;19.37;;;10.10;;
22160;SDS011;49035;48.812;11.762;2022-11-27T16:16:13;18.23;;;10.00;;
22160;SDS011;49035;48.812;11.762;2022-11-27T16:18:38;19.63;;;10.17;;
22160;SDS011;49035;48.812;11.762;2022-11-27T16:21:04;21.53;;;11.20;;
22160;SDS011;49035;48.812;11.762;2022-11-27T16:23:31;18.57;;;10.50;;
22160;SDS011;49035;48.812;11.762;2022-11-27T16:25:57;21.13;;;11.10;;
22160;SDS011;49035;48.812;11.762;2022-11-27T16:28:24;20.77;;;10.90;;
22160;SDS011;49035;48.812;11.762;2022-11-27T16:30:51;20.60;;;11.10;;
22160;SDS011;49035;48.812;11.762;2022-11-27T16:33:18;18.50;;;10.73;;